Чайбуха

СКИДКИ НА СМАРТФОНЫ!

Карта отелей и гостиниц, располагающихся рядом с аэропортом Чайбуха :

Чайбуха Магаданская область 61° 50' 8.16" N, 160° 32' 56.8212" E
Код аэродрома ИКАО
UHMG
Код аэродрома RU
УХМГ
Координаты
N61.83560° E160.54912°
Превышение над уровнем моря
66
Основная полоса
06L/24R
Курс магнитный
062,5/242,5
Длина основной ВПП
2000
Ширина основной ВПП
48
Покрытие основной ВПП
Твёрдое
Освещение ВПП
Постоянное
Тип: 
Аэродром
Класс аэродрома: 
Принадлежность: 
ГА
Статус: 
Действующий
Сайт: 
E-mail аэродрома: 
offise@sv.gkovd.ru
Страна: 
Россия
Регион: 
Магаданская область
Город: 
Дополнительная информация: 
ВС до 24 т - летом, до 61 т - зимой. Находится под управлением филиала "Аэронавигация Северо-Востока" ФГУП "Госкорпорация по ОрВД", г. Магадан, Марчеканское шоссе, 37.

Скидки на навигаторы!

Найти трансфер

С помощью этой формы Вы можете найти трансфер из аэропорта Чайбуха в город, аэропорт или вокзал:

Погода в аэропортах:

Авиационная погода в Кневичи

Регион: 
Погода METAR: 
UHWW 190100Z 14005MPS 9999 -SHRA SCT017 BKN040CB 23/20 Q1000 R25L/0///70 NOSIG RMK QFE749
Время наблюдения
2022-08-19T01:00:00Z
Температура C
23.0
Точка росы
20.0
Направление ветра
140
Скорость ветра (узлы)
10
Метео видимость
6.21
Облачность
SCT
BKN
Нижняя граница облачности (футы)
1700
4000
Явления погоды
-SHRA
Условия полета
VFR
Аэропорт подробнее: 
SCT – разбросанная отдельная облачность; BKN – значительная (рассеянная, разорванная) облачность;
-SHRA - слабый ливневой дождь;

Авиационная погода в Емельяново

Регион: 
Погода METAR: 
UNKL 190100Z 25003MPS 9999 -SHRA SCT040CB 10/09 Q1010 R29/110060 NOSIG RMK QFE732
Время наблюдения
2022-08-19T01:00:00Z
Температура C
10.0
Точка росы
9.0
Направление ветра
250
Скорость ветра (узлы)
6
Метео видимость
6.21
Облачность
SCT
Нижняя граница облачности (футы)
4000
Явления погоды
-SHRA
Условия полета
VFR
Аэропорт подробнее: 
SCT – разбросанная отдельная облачность;
-SHRA - слабый ливневой дождь;

Авиационная погода в Ханты-Мансийске

Регион: 
Погода METAR: 
USHH 190100Z 28001MPS 7000 -SHRA BKN007CB 11/11 Q1024 R06/290050 TEMPO 2000 SHRA BKN010CB
Время наблюдения
2022-08-19T01:00:00Z
Температура C
11.0
Точка росы
11.0
Направление ветра
280
Скорость ветра (узлы)
2
Метео видимость
4.35
Облачность
BKN
Нижняя граница облачности (футы)
700
Явления погоды
-SHRA
Условия полета
IFR
Аэропорт подробнее: 
BKN – значительная (рассеянная, разорванная) облачность;
-SHRA - слабый ливневой дождь;

Авиационная погода в Пскове

Регион: 
Погода METAR: 
ULOO 190100Z 00000MPS 3300 R19/P2000D BR NSC 16/16 Q1019 NOSIG RMK QFE760
Время наблюдения
2022-08-19T01:00:00Z
Температура C
16.0
Точка росы
16.0
Направление ветра
0
Скорость ветра (узлы)
0
Метео видимость
2.05
Облачность
CLR
Нижняя граница облачности (футы)
Явления погоды
BR
Условия полета
IFR
CLR — нет облаков ниже 3000 м
BR – дымка (видимость от 1 до 9 км);